sensor_id;sensor_type;location;lat;lon;timestamp;pressure;altitude;pressure_sealevel;temperature;humidity
50702;BME280;36670;50.094;8.496;2023-10-31T00:01:43;98535.88;;;17.25;64.45
50702;BME280;36670;50.094;8.496;2023-10-31T00:04:08;98537.22;;;17.18;64.39
50702;BME280;36670;50.094;8.496;2023-10-31T00:06:34;98539.34;;;17.00;64.60
50702;BME280;36670;50.094;8.496;2023-10-31T00:08:59;98545.66;;;16.88;64.37
50702;BME280;36670;50.094;8.496;2023-10-31T00:11:24;98546.84;;;16.79;64.39
50702;BME280;36670;50.094;8.496;2023-10-31T00:13:50;98551.56;;;16.78;64.33
50702;BME280;36670;50.094;8.496;2023-10-31T00:16:15;98563.19;;;16.59;64.78
50702;BME280;36670;50.094;8.496;2023-10-31T00:18:40;98566.31;;;16.58;64.12
50702;BME280;36670;50.094;8.496;2023-10-31T00:21:06;98564.88;;;16.43;64.55
50702;BME280;36670;50.094;8.496;2023-10-31T00:23:31;98565.56;;;16.31;64.76
50702;BME280;36670;50.094;8.496;2023-10-31T00:25:56;98570.47;;;16.43;64.47
50702;BME280;36670;50.094;8.496;2023-10-31T00:28:22;98573.16;;;16.21;64.53
50702;BME280;36670;50.094;8.496;2023-10-31T00:30:47;98570.34;;;16.30;64.18
50702;BME280;36670;50.094;8.496;2023-10-31T00:33:12;98581.22;;;16.53;64.01
50702;BME280;36670;50.094;8.496;2023-10-31T00:35:37;98591.88;;;16.51;63.49
50702;BME280;36670;50.094;8.496;2023-10-31T00:38:03;98601.81;;;16.22;64.30
50702;BME280;36670;50.094;8.496;2023-10-31T00:40:28;98592.34;;;16.53;63.96
50702;BME280;36670;50.094;8.496;2023-10-31T00:42:54;98598.19;;;16.30;64.20
50702;BME280;36670;50.094;8.496;2023-10-31T00:45:21;98595.19;;;16.44;64.11
50702;BME280;36670;50.094;8.496;2023-10-31T00:47:46;98591.88;;;16.51;63.59
50702;BME280;36670;50.094;8.496;2023-10-31T00:50:11;98597.59;;;16.54;63.71
50702;BME280;36670;50.094;8.496;2023-10-31T00:52:37;98604.91;;;16.29;64.57
50702;BME280;36670;50.094;8.496;2023-10-31T00:55:02;98599.63;;;16.45;63.88
50702;BME280;36670;50.094;8.496;2023-10-31T00:57:28;98598.94;;;16.48;63.75
50702;BME280;36670;50.094;8.496;2023-10-31T00:59:53;98601.16;;;16.25;64.30
50702;BME280;36670;50.094;8.496;2023-10-31T01:02:21;98609.63;;;16.37;64.23
50702;BME280;36670;50.094;8.496;2023-10-31T01:04:47;98616.53;;;16.31;63.40
50702;BME280;36670;50.094;8.496;2023-10-31T01:07:12;98608.78;;;16.46;63.87
50702;BME280;36670;50.094;8.496;2023-10-31T01:09:39;98615.41;;;16.24;63.74
50702;BME280;36670;50.094;8.496;2023-10-31T01:12:05;98619.69;;;16.12;63.69
50702;BME280;36670;50.094;8.496;2023-10-31T01:14:31;98624.78;;;16.01;63.98
50702;BME280;36670;50.094;8.496;2023-10-31T01:16:56;98624.38;;;16.29;63.04
50702;BME280;36670;50.094;8.496;2023-10-31T01:19:21;98617.03;;;16.25;63.23
50702;BME280;36670;50.094;8.496;2023-10-31T01:21:46;98610.84;;;16.10;63.35
50702;BME280;36670;50.094;8.496;2023-10-31T01:24:12;98612.81;;;16.10;63.41
50702;BME280;36670;50.094;8.496;2023-10-31T01:26:37;98613.75;;;16.31;62.82
50702;BME280;36670;50.094;8.496;2023-10-31T01:29:02;98612.47;;;16.11;62.63
50702;BME280;36670;50.094;8.496;2023-10-31T01:31:28;98618.34;;;16.18;62.48
50702;BME280;36670;50.094;8.496;2023-10-31T01:33:53;98629.63;;;16.31;62.32
50702;BME280;36670;50.094;8.496;2023-10-31T01:36:18;98629.78;;;16.34;62.22
50702;BME280;36670;50.094;8.496;2023-10-31T01:38:44;98643.72;;;16.34;61.83
50702;BME280;36670;50.094;8.496;2023-10-31T01:41:11;98650.47;;;16.07;62.28
50702;BME280;36670;50.094;8.496;2023-10-31T01:43:37;98645.72;;;16.16;62.89
50702;BME280;36670;50.094;8.496;2023-10-31T01:46:03;98650.47;;;16.25;63.07
50702;BME280;36670;50.094;8.496;2023-10-31T01:48:30;98661.28;;;16.17;62.66
50702;BME280;36670;50.094;8.496;2023-10-31T01:50:58;98655.22;;;16.15;62.55
50702;BME280;36670;50.094;8.496;2023-10-31T01:53:25;98649.59;;;16.42;61.77
50702;BME280;36670;50.094;8.496;2023-10-31T01:55:52;98651.56;;;16.41;62.34
50702;BME280;36670;50.094;8.496;2023-10-31T01:58:20;98652.09;;;16.17;62.46
50702;BME280;36670;50.094;8.496;2023-10-31T02:00:49;98644.88;;;16.25;62.36
50702;BME280;36670;50.094;8.496;2023-10-31T02:03:15;98650.75;;;16.32;61.99
50702;BME280;36670;50.094;8.496;2023-10-31T02:05:41;98654.50;;;16.45;62.06
50702;BME280;36670;50.094;8.496;2023-10-31T02:08:06;98654.50;;;16.45;62.20
50702;BME280;36670;50.094;8.496;2023-10-31T02:10:35;98659.34;;;16.65;61.82
50702;BME280;36670;50.094;8.496;2023-10-31T02:15:37;98658.66;;;16.68;61.67
50702;BME280;36670;50.094;8.496;2023-10-31T02:18:03;98653.38;;;16.76;61.87
50702;BME280;36670;50.094;8.496;2023-10-31T02:20:28;98662.75;;;16.71;61.53
50702;BME280;36670;50.094;8.496;2023-10-31T02:22:54;98671.50;;;16.52;61.40
50702;BME280;36670;50.094;8.496;2023-10-31T02:25:19;98662.47;;;16.64;60.93
50702;BME280;36670;50.094;8.496;2023-10-31T02:27:45;98654.44;;;16.62;61.07
50702;BME280;36670;50.094;8.496;2023-10-31T02:30:11;98653.97;;;16.51;61.38
50702;BME280;36670;50.094;8.496;2023-10-31T02:32:36;98657.34;;;16.18;61.59
50702;BME280;36670;50.094;8.496;2023-10-31T02:35:01;98659.09;;;16.41;60.86
50702;BME280;36670;50.094;8.496;2023-10-31T02:37:27;98658.03;;;15.98;61.30
50702;BME280;36670;50.094;8.496;2023-10-31T02:39:52;98668.00;;;16.16;62.04
50702;BME280;36670;50.094;8.496;2023-10-31T02:42:17;98662.59;;;16.20;61.81
50702;BME280;36670;50.094;8.496;2023-10-31T02:44:43;98664.72;;;16.14;61.97
50702;BME280;36670;50.094;8.496;2023-10-31T02:47:14;98668.63;;;16.22;61.61
50702;BME280;36670;50.094;8.496;2023-10-31T02:49:39;98671.25;;;16.18;61.26
50702;BME280;36670;50.094;8.496;2023-10-31T02:52:05;98681.56;;;16.27;61.61
50702;BME280;36670;50.094;8.496;2023-10-31T02:54:31;98679.09;;;16.25;61.68
50702;BME280;36670;50.094;8.496;2023-10-31T02:56:56;98691.75;;;15.96;60.77
50702;BME280;36670;50.094;8.496;2023-10-31T02:59:21;98693.19;;;15.76;62.04
50702;BME280;36670;50.094;8.496;2023-10-31T03:01:47;98698.78;;;15.85;61.52
50702;BME280;36670;50.094;8.496;2023-10-31T03:04:12;98699.28;;;15.87;61.49
50702;BME280;36670;50.094;8.496;2023-10-31T03:06:43;98700.59;;;15.81;60.94
50702;BME280;36670;50.094;8.496;2023-10-31T03:09:09;98700.56;;;15.63;61.05
50702;BME280;36670;50.094;8.496;2023-10-31T03:11:34;98713.28;;;15.47;61.53
50702;BME280;36670;50.094;8.496;2023-10-31T03:13:59;98712.81;;;15.53;61.87
50702;BME280;36670;50.094;8.496;2023-10-31T03:16:25;98718.78;;;15.21;62.02
50702;BME280;36670;50.094;8.496;2023-10-31T03:18:51;98710.59;;;15.15;62.32
50702;BME280;36670;50.094;8.496;2023-10-31T03:21:22;98719.44;;;15.17;61.92
50702;BME280;36670;50.094;8.496;2023-10-31T03:23:51;98726.91;;;15.08;62.39
50702;BME280;36670;50.094;8.496;2023-10-31T03:26:18;98732.00;;;15.15;62.68
50702;BME280;36670;50.094;8.496;2023-10-31T03:28:45;98750.88;;;15.27;61.94
50702;BME280;36670;50.094;8.496;2023-10-31T03:31:11;98754.00;;;15.34;62.25
50702;BME280;36670;50.094;8.496;2023-10-31T03:33:36;98760.72;;;15.42;61.88
50702;BME280;36670;50.094;8.496;2023-10-31T03:36:03;98757.47;;;15.57;61.53
50702;BME280;36670;50.094;8.496;2023-10-31T03:38:28;98764.16;;;15.39;62.00
50702;BME280;36670;50.094;8.496;2023-10-31T03:40:53;98764.94;;;15.30;62.34
50702;BME280;36670;50.094;8.496;2023-10-31T03:43:19;98767.16;;;15.60;61.67
50702;BME280;36670;50.094;8.496;2023-10-31T03:45:47;98771.81;;;15.33;62.75
50702;BME280;36670;50.094;8.496;2023-10-31T03:48:13;98777.41;;;14.70;63.30
50702;BME280;36670;50.094;8.496;2023-10-31T03:50:39;98785.28;;;14.54;63.52
50702;BME280;36670;50.094;8.496;2023-10-31T03:53:04;98790.38;;;14.83;63.68
50702;BME280;36670;50.094;8.496;2023-10-31T03:55:29;98790.25;;;14.89;63.83
50702;BME280;36670;50.094;8.496;2023-10-31T03:57:55;98798.69;;;15.06;62.98
50702;BME280;36670;50.094;8.496;2023-10-31T04:00:21;98802.50;;;14.88;62.95
50702;BME280;36670;50.094;8.496;2023-10-31T04:02:46;98800.13;;;14.95;62.71
50702;BME280;36670;50.094;8.496;2023-10-31T04:05:11;98797.63;;;15.25;62.85
50702;BME280;36670;50.094;8.496;2023-10-31T04:07:36;98792.97;;;15.11;62.31
50702;BME280;36670;50.094;8.496;2023-10-31T04:10:03;98792.94;;;15.34;62.22
50702;BME280;36670;50.094;8.496;2023-10-31T04:12:28;98790.53;;;15.59;61.88
50702;BME280;36670;50.094;8.496;2023-10-31T04:14:53;98793.81;;;15.61;61.63
50702;BME280;36670;50.094;8.496;2023-10-31T04:17:19;98785.94;;;15.45;61.91
50702;BME280;36670;50.094;8.496;2023-10-31T04:19:44;98801.41;;;15.29;62.19
50702;BME280;36670;50.094;8.496;2023-10-31T04:22:09;98796.75;;;15.56;61.76
50702;BME280;36670;50.094;8.496;2023-10-31T04:24:34;98800.84;;;15.58;61.54
50702;BME280;36670;50.094;8.496;2023-10-31T04:27:00;98804.56;;;15.45;61.93
50702;BME280;36670;50.094;8.496;2023-10-31T04:29:25;98798.28;;;15.70;61.49
50702;BME280;36670;50.094;8.496;2023-10-31T04:31:50;98803.50;;;15.63;61.57
50702;BME280;36670;50.094;8.496;2023-10-31T04:34:15;98813.88;;;15.80;61.07
50702;BME280;36670;50.094;8.496;2023-10-31T04:36:41;98809.16;;;15.90;61.31
50702;BME280;36670;50.094;8.496;2023-10-31T04:39:07;98810.53;;;15.69;61.31
50702;BME280;36670;50.094;8.496;2023-10-31T04:41:32;98812.84;;;15.67;61.02
50702;BME280;36670;50.094;8.496;2023-10-31T04:43:58;98808.03;;;15.50;61.32
50702;BME280;36670;50.094;8.496;2023-10-31T04:46:24;98804.94;;;15.61;60.86
50702;BME280;36670;50.094;8.496;2023-10-31T04:48:51;98802.81;;;15.58;61.76
50702;BME280;36670;50.094;8.496;2023-10-31T04:51:17;98802.31;;;15.56;61.80
50702;BME280;36670;50.094;8.496;2023-10-31T04:53:42;98799.25;;;15.75;60.96
50702;BME280;36670;50.094;8.496;2023-10-31T04:56:12;98807.56;;;15.57;60.87
50702;BME280;36670;50.094;8.496;2023-10-31T04:58:38;98812.91;;;15.45;62.09
50702;BME280;36670;50.094;8.496;2023-10-31T05:01:08;98815.19;;;15.43;61.53
50702;BME280;36670;50.094;8.496;2023-10-31T05:03:33;98815.53;;;15.50;61.48
50702;BME280;36670;50.094;8.496;2023-10-31T05:05:58;98821.63;;;15.52;61.44
50702;BME280;36670;50.094;8.496;2023-10-31T05:08:24;98819.31;;;15.45;62.01
50702;BME280;36670;50.094;8.496;2023-10-31T05:10:49;98818.34;;;15.59;61.26
50702;BME280;36670;50.094;8.496;2023-10-31T05:13:15;98817.50;;;15.41;62.02
50702;BME280;36670;50.094;8.496;2023-10-31T05:15:40;98821.06;;;15.32;62.40
50702;BME280;36670;50.094;8.496;2023-10-31T05:18:05;98816.06;;;15.61;61.77
50702;BME280;36670;50.094;8.496;2023-10-31T05:20:31;98819.53;;;15.66;61.32
50702;BME280;36670;50.094;8.496;2023-10-31T05:22:56;98811.31;;;15.61;61.52
50702;BME280;36670;50.094;8.496;2023-10-31T05:25:21;98818.06;;;15.60;61.72
50702;BME280;36670;50.094;8.496;2023-10-31T05:27:46;98816.06;;;15.61;61.39
50702;BME280;36670;50.094;8.496;2023-10-31T05:30:13;98824.56;;;15.56;62.24
50702;BME280;36670;50.094;8.496;2023-10-31T05:32:39;98831.69;;;15.79;61.29
50702;BME280;36670;50.094;8.496;2023-10-31T05:35:05;98832.22;;;15.81;61.56
50702;BME280;36670;50.094;8.496;2023-10-31T05:37:30;98819.53;;;15.66;61.85
50702;BME280;36670;50.094;8.496;2023-10-31T05:39:55;98824.63;;;15.64;61.22
50702;BME280;36670;50.094;8.496;2023-10-31T05:42:20;98839.97;;;15.62;61.50
50702;BME280;36670;50.094;8.496;2023-10-31T05:44:46;98835.56;;;15.69;61.41
50702;BME280;36670;50.094;8.496;2023-10-31T05:47:11;98835.00;;;15.41;61.98
50702;BME280;36670;50.094;8.496;2023-10-31T05:49:36;98840.97;;;15.26;62.64
50702;BME280;36670;50.094;8.496;2023-10-31T05:52:02;98841.88;;;15.12;62.34
50702;BME280;36670;50.094;8.496;2023-10-31T05:54:27;98844.50;;;15.49;62.28
50702;BME280;36670;50.094;8.496;2023-10-31T05:56:52;98850.31;;;15.70;61.48
50702;BME280;36670;50.094;8.496;2023-10-31T05:59:18;98856.13;;;15.51;61.73
50702;BME280;36670;50.094;8.496;2023-10-31T06:01:43;98853.34;;;15.51;61.59
50702;BME280;36670;50.094;8.496;2023-10-31T06:04:08;98858.59;;;15.52;61.32
50702;BME280;36670;50.094;8.496;2023-10-31T06:06:37;98863.47;;;15.47;61.47
50702;BME280;36670;50.094;8.496;2023-10-31T06:09:02;98868.16;;;15.38;61.88
50702;BME280;36670;50.094;8.496;2023-10-31T06:11:28;98859.78;;;15.29;61.84
50702;BME280;36670;50.094;8.496;2023-10-31T06:13:53;98866.50;;;15.28;61.45
50702;BME280;36670;50.094;8.496;2023-10-31T06:16:18;98877.97;;;15.35;62.02
50702;BME280;36670;50.094;8.496;2023-10-31T06:18:44;98877.84;;;15.40;61.45
50702;BME280;36670;50.094;8.496;2023-10-31T06:21:10;98887.63;;;15.38;61.02
50702;BME280;36670;50.094;8.496;2023-10-31T06:23:38;98896.06;;;15.55;60.90
50702;BME280;36670;50.094;8.496;2023-10-31T06:26:04;98897.44;;;15.66;61.10
50702;BME280;36670;50.094;8.496;2023-10-31T06:28:29;98901.22;;;15.70;60.80
50702;BME280;36670;50.094;8.496;2023-10-31T06:30:54;98900.28;;;15.44;60.93
50702;BME280;36670;50.094;8.496;2023-10-31T06:33:20;98904.25;;;15.20;61.19
50702;BME280;36670;50.094;8.496;2023-10-31T06:35:45;98903.91;;;15.22;61.20
50702;BME280;36670;50.094;8.496;2023-10-31T06:38:10;98912.31;;;15.30;60.64
50702;BME280;36670;50.094;8.496;2023-10-31T06:40:35;98910.56;;;15.43;60.65
50702;BME280;36670;50.094;8.496;2023-10-31T06:43:01;98920.59;;;15.22;61.83
50702;BME280;36670;50.094;8.496;2023-10-31T06:45:26;98926.94;;;15.13;61.13
50702;BME280;36670;50.094;8.496;2023-10-31T06:47:52;98934.81;;;15.20;61.26
50702;BME280;36670;50.094;8.496;2023-10-31T06:50:17;98930.59;;;15.23;61.17
50702;BME280;36670;50.094;8.496;2023-10-31T06:52:42;98933.19;;;14.96;61.04
50702;BME280;36670;50.094;8.496;2023-10-31T06:55:08;98928.34;;;15.33;60.81
50702;BME280;36670;50.094;8.496;2023-10-31T06:57:33;98924.59;;;14.84;61.90
50702;BME280;36670;50.094;8.496;2023-10-31T06:59:58;98926.25;;;14.85;61.18
50702;BME280;36670;50.094;8.496;2023-10-31T07:02:23;98940.88;;;14.77;61.66
50702;BME280;36670;50.094;8.496;2023-10-31T07:04:50;98942.59;;;15.09;60.69
50702;BME280;36670;50.094;8.496;2023-10-31T07:07:16;98941.31;;;15.38;60.73
50702;BME280;36670;50.094;8.496;2023-10-31T07:09:41;98942.25;;;15.33;60.46
50702;BME280;36670;50.094;8.496;2023-10-31T07:12:06;98954.06;;;15.39;60.82
50702;BME280;36670;50.094;8.496;2023-10-31T07:14:31;98952.75;;;15.36;60.03
50702;BME280;36670;50.094;8.496;2023-10-31T07:16:57;98961.97;;;15.23;60.35
50702;BME280;36670;50.094;8.496;2023-10-31T07:19:22;98954.53;;;15.32;60.64
50702;BME280;36670;50.094;8.496;2023-10-31T07:21:47;98952.59;;;15.42;60.18
50702;BME280;36670;50.094;8.496;2023-10-31T07:24:12;98959.16;;;15.14;60.55
50702;BME280;36670;50.094;8.496;2023-10-31T07:26:38;98970.53;;;15.27;60.60
50702;BME280;36670;50.094;8.496;2023-10-31T07:29:03;98977.34;;;15.21;60.95
50702;BME280;36670;50.094;8.496;2023-10-31T07:31:28;98974.22;;;15.45;60.50
50702;BME280;36670;50.094;8.496;2023-10-31T07:33:54;98967.66;;;15.41;60.19
50702;BME280;36670;50.094;8.496;2023-10-31T07:36:19;98982.50;;;15.36;60.62
50702;BME280;36670;50.094;8.496;2023-10-31T07:38:44;98983.78;;;15.30;60.69
50702;BME280;36670;50.094;8.496;2023-10-31T07:41:09;98987.81;;;15.01;61.08
50702;BME280;36670;50.094;8.496;2023-10-31T07:43:35;98985.63;;;15.12;60.80
50702;BME280;36670;50.094;8.496;2023-10-31T07:46:00;98986.84;;;14.83;61.50
50702;BME280;36670;50.094;8.496;2023-10-31T07:48:25;98996.41;;;15.13;61.30
50702;BME280;36670;50.094;8.496;2023-10-31T07:50:51;99005.25;;;15.15;61.49
50702;BME280;36670;50.094;8.496;2023-10-31T07:53:16;98999.47;;;15.03;61.09
50702;BME280;36670;50.094;8.496;2023-10-31T07:55:41;99011.34;;;15.17;61.15
50702;BME280;36670;50.094;8.496;2023-10-31T07:58:06;99008.22;;;15.42;60.54
50702;BME280;36670;50.094;8.496;2023-10-31T08:00:32;99009.31;;;15.55;60.78
50702;BME280;36670;50.094;8.496;2023-10-31T08:02:59;99017.19;;;15.61;60.21
50702;BME280;36670;50.094;8.496;2023-10-31T08:05:24;99020.16;;;15.65;60.00
50702;BME280;36670;50.094;8.496;2023-10-31T08:07:50;99022.69;;;15.52;60.47
50702;BME280;36670;50.094;8.496;2023-10-31T08:10:15;99033.63;;;15.72;59.95
50702;BME280;36670;50.094;8.496;2023-10-31T08:12:40;99030.63;;;15.36;60.47
50702;BME280;36670;50.094;8.496;2023-10-31T08:15:06;99024.03;;;15.55;59.54
50702;BME280;36670;50.094;8.496;2023-10-31T08:17:31;99034.00;;;15.33;60.51
50702;BME280;36670;50.094;8.496;2023-10-31T08:19:57;99038.03;;;15.73;59.36
50702;BME280;36670;50.094;8.496;2023-10-31T08:22:22;99040.09;;;15.35;59.35
50702;BME280;36670;50.094;8.496;2023-10-31T08:24:47;99043.50;;;15.32;59.71
50702;BME280;36670;50.094;8.496;2023-10-31T08:27:13;99047.09;;;15.33;59.49
50702;BME280;36670;50.094;8.496;2023-10-31T08:29:38;99048.00;;;15.42;60.05
50702;BME280;36670;50.094;8.496;2023-10-31T08:32:05;99042.66;;;15.77;59.17
50702;BME280;36670;50.094;8.496;2023-10-31T08:34:30;99039.72;;;15.51;60.10
50702;BME280;36670;50.094;8.496;2023-10-31T08:36:55;99045.34;;;15.82;59.15
50702;BME280;36670;50.094;8.496;2023-10-31T08:39:22;99049.31;;;16.21;58.88
50702;BME280;36670;50.094;8.496;2023-10-31T08:41:52;99055.03;;;16.25;58.55
50702;BME280;36670;50.094;8.496;2023-10-31T08:44:17;99059.78;;;16.16;59.07
50702;BME280;36670;50.094;8.496;2023-10-31T08:46:42;99077.66;;;16.24;58.41
50702;BME280;36670;50.094;8.496;2023-10-31T08:49:08;99067.41;;;16.10;58.50
50702;BME280;36670;50.094;8.496;2023-10-31T08:51:33;99076.75;;;16.46;58.14
50702;BME280;36670;50.094;8.496;2023-10-31T08:53:58;99084.88;;;16.65;57.59
50702;BME280;36670;50.094;8.496;2023-10-31T08:56:24;99079.31;;;16.33;57.64
50702;BME280;36670;50.094;8.496;2023-10-31T08:58:49;99090.31;;;16.30;57.68
50702;BME280;36670;50.094;8.496;2023-10-31T09:01:14;99083.81;;;16.52;57.06
50702;BME280;36670;50.094;8.496;2023-10-31T09:03:39;99095.94;;;16.47;57.05
50702;BME280;36670;50.094;8.496;2023-10-31T09:06:05;99086.03;;;16.32;58.28
50702;BME280;36670;50.094;8.496;2023-10-31T09:08:30;99095.56;;;16.31;57.39
50702;BME280;36670;50.094;8.496;2023-10-31T09:10:56;99097.03;;;16.37;57.58
50702;BME280;36670;50.094;8.496;2023-10-31T09:13:21;99098.63;;;16.70;57.07
50702;BME280;36670;50.094;8.496;2023-10-31T09:15:46;99094.56;;;16.76;57.41
50702;BME280;36670;50.094;8.496;2023-10-31T09:18:12;99102.47;;;16.83;57.09
50702;BME280;36670;50.094;8.496;2023-10-31T09:20:38;99111.19;;;16.50;57.43
50702;BME280;36670;50.094;8.496;2023-10-31T09:23:03;99114.97;;;16.94;56.75
50702;BME280;36670;50.094;8.496;2023-10-31T09:25:28;99123.88;;;16.65;56.29
50702;BME280;36670;50.094;8.496;2023-10-31T09:27:55;99123.91;;;16.82;56.49
50702;BME280;36670;50.094;8.496;2023-10-31T09:30:20;99131.09;;;17.15;56.51
50702;BME280;36670;50.094;8.496;2023-10-31T09:32:45;99133.50;;;16.99;56.38
50702;BME280;36670;50.094;8.496;2023-10-31T09:35:11;99137.13;;;16.99;56.22
50702;BME280;36670;50.094;8.496;2023-10-31T09:37:38;99129.59;;;17.00;56.13
50702;BME280;36670;50.094;8.496;2023-10-31T09:40:04;99146.53;;;16.72;56.46
50702;BME280;36670;50.094;8.496;2023-10-31T09:42:30;99136.81;;;16.61;56.33
50702;BME280;36670;50.094;8.496;2023-10-31T09:44:55;99150.84;;;16.87;55.79
50702;BME280;36670;50.094;8.496;2023-10-31T09:47:20;99143.09;;;16.75;55.69
50702;BME280;36670;50.094;8.496;2023-10-31T09:49:47;99139.84;;;16.82;56.46
50702;BME280;36670;50.094;8.496;2023-10-31T09:52:12;99143.81;;;16.89;56.09
50702;BME280;36670;50.094;8.496;2023-10-31T09:54:39;99146.19;;;16.73;55.43
50702;BME280;36670;50.094;8.496;2023-10-31T09:57:05;99152.47;;;16.88;55.63
50702;BME280;36670;50.094;8.496;2023-10-31T09:59:30;99143.63;;;16.86;55.30
50702;BME280;36670;50.094;8.496;2023-10-31T10:01:56;99140.88;;;17.03;53.89
50702;BME280;36670;50.094;8.496;2023-10-31T10:04:21;99141.25;;;17.11;54.64
50702;BME280;36670;50.094;8.496;2023-10-31T10:06:51;99146.66;;;17.16;54.47
50702;BME280;36670;50.094;8.496;2023-10-31T10:09:16;99145.00;;;17.06;54.65
50702;BME280;36670;50.094;8.496;2023-10-31T10:11:42;99142.88;;;17.03;55.34
50702;BME280;36670;50.094;8.496;2023-10-31T10:14:07;99149.66;;;17.37;54.59
50702;BME280;36670;50.094;8.496;2023-10-31T10:16:36;99148.03;;;17.36;54.10
50702;BME280;36670;50.094;8.496;2023-10-31T10:19:20;99152.41;;;17.11;54.85
50702;BME280;36670;50.094;8.496;2023-10-31T10:21:50;99157.03;;;17.85;54.16
50702;BME280;36670;50.094;8.496;2023-10-31T10:24:17;99158.38;;;17.70;52.99
50702;BME280;36670;50.094;8.496;2023-10-31T10:26:43;99158.53;;;17.83;52.99
50702;BME280;36670;50.094;8.496;2023-10-31T10:29:08;99157.53;;;18.22;53.18
50702;BME280;36670;50.094;8.496;2023-10-31T10:31:33;99156.09;;;17.99;53.24
50702;BME280;36670;50.094;8.496;2023-10-31T10:33:59;99159.03;;;17.94;52.30
50702;BME280;36670;50.094;8.496;2023-10-31T10:36:26;99153.28;;;17.90;53.21
50702;BME280;36670;50.094;8.496;2023-10-31T10:38:56;99150.47;;;17.81;52.99
50702;BME280;36670;50.094;8.496;2023-10-31T10:41:27;99156.88;;;17.90;52.43
50702;BME280;36670;50.094;8.496;2023-10-31T10:44:05;99153.78;;;18.10;53.14
50702;BME280;36670;50.094;8.496;2023-10-31T10:46:36;99149.69;;;17.98;51.54
50702;BME280;36670;50.094;8.496;2023-10-31T10:49:04;99152.16;;;17.73;52.27
50702;BME280;36670;50.094;8.496;2023-10-31T10:54:19;99157.72;;;18.08;51.81
50702;BME280;36670;50.094;8.496;2023-10-31T10:56:54;99152.03;;;18.43;51.60
50702;BME280;36670;50.094;8.496;2023-10-31T10:59:43;99143.91;;;18.68;51.14
50702;BME280;36670;50.094;8.496;2023-10-31T11:02:14;99150.09;;;18.35;50.38
50702;BME280;36670;50.094;8.496;2023-10-31T11:04:41;99153.78;;;17.74;50.20
50702;BME280;36670;50.094;8.496;2023-10-31T11:07:07;99150.66;;;17.58;49.92
50702;BME280;36670;50.094;8.496;2023-10-31T11:09:33;99150.66;;;17.67;51.01
50702;BME280;36670;50.094;8.496;2023-10-31T11:11:59;99150.47;;;17.81;51.43
50702;BME280;36670;50.094;8.496;2023-10-31T11:14:25;99146.31;;;18.40;50.70
50702;BME280;36670;50.094;8.496;2023-10-31T11:16:53;99139.66;;;18.06;50.25
50702;BME280;36670;50.094;8.496;2023-10-31T11:19:19;99143.56;;;18.22;50.54
50702;BME280;36670;50.094;8.496;2023-10-31T11:22:00;99144.38;;;18.32;49.83
50702;BME280;36670;50.094;8.496;2023-10-31T11:24:31;99140.16;;;17.82;50.95
50702;BME280;36670;50.094;8.496;2023-10-31T11:27:02;99142.06;;;18.34;49.97
50702;BME280;36670;50.094;8.496;2023-10-31T11:29:27;99143.69;;;18.35;50.66
50702;BME280;36670;50.094;8.496;2023-10-31T11:31:56;99147.13;;;18.40;50.44
50702;BME280;36670;50.094;8.496;2023-10-31T11:34:22;99144.72;;;18.69;49.74
50702;BME280;36670;50.094;8.496;2023-10-31T11:36:47;99146.19;;;18.66;49.20
50702;BME280;36670;50.094;8.496;2023-10-31T11:39:14;99150.44;;;18.34;49.03
50702;BME280;36670;50.094;8.496;2023-10-31T11:41:45;99141.44;;;18.19;49.93
50702;BME280;36670;50.094;8.496;2023-10-31T11:44:14;99148.91;;;18.54;49.43
50702;BME280;36670;50.094;8.496;2023-10-31T11:46:40;99144.13;;;18.54;49.73
50702;BME280;36670;50.094;8.496;2023-10-31T11:49:05;99145.13;;;18.50;48.11
50702;BME280;36670;50.094;8.496;2023-10-31T11:51:32;99154.44;;;18.15;49.44
50702;BME280;36670;50.094;8.496;2023-10-31T11:53:59;99150.38;;;18.99;49.45
50702;BME280;36670;50.094;8.496;2023-10-31T11:56:25;99152.19;;;19.24;48.21
50702;BME280;36670;50.094;8.496;2023-10-31T11:59:02;99156.59;;;19.04;47.95
50702;BME280;36670;50.094;8.496;2023-10-31T12:01:27;99155.47;;;19.26;47.50
50702;BME280;36670;50.094;8.496;2023-10-31T12:03:53;99170.09;;;19.02;47.24
50702;BME280;36670;50.094;8.496;2023-10-31T12:06:19;99167.59;;;18.62;47.24
50702;BME280;36670;50.094;8.496;2023-10-31T12:08:46;99166.19;;;18.95;48.02
50702;BME280;36670;50.094;8.496;2023-10-31T12:11:22;99177.81;;;19.05;48.08
50702;BME280;36670;50.094;8.496;2023-10-31T12:13:58;99178.25;;;18.77;47.74
50702;BME280;36670;50.094;8.496;2023-10-31T12:16:26;99175.81;;;18.67;47.83
50702;BME280;36670;50.094;8.496;2023-10-31T12:19:00;99179.19;;;18.43;48.22
50702;BME280;36670;50.094;8.496;2023-10-31T12:21:43;99180.22;;;18.77;47.75
50702;BME280;36670;50.094;8.496;2023-10-31T12:24:13;99180.69;;;18.88;48.49
50702;BME280;36670;50.094;8.496;2023-10-31T12:26:39;99185.59;;;18.91;48.18
50702;BME280;36670;50.094;8.496;2023-10-31T12:29:16;99184.75;;;18.99;48.08
50702;BME280;36670;50.094;8.496;2023-10-31T12:31:43;99185.66;;;19.12;48.37
50702;BME280;36670;50.094;8.496;2023-10-31T12:34:10;99181.03;;;19.46;48.11
50702;BME280;36670;50.094;8.496;2023-10-31T12:36:36;99184.16;;;19.15;48.17
50702;BME280;36670;50.094;8.496;2023-10-31T12:39:04;99186.22;;;18.97;48.58
50702;BME280;36670;50.094;8.496;2023-10-31T12:41:31;99195.66;;;19.22;48.90
50702;BME280;36670;50.094;8.496;2023-10-31T12:43:56;99183.75;;;19.55;48.15
50702;BME280;36670;50.094;8.496;2023-10-31T12:46:29;99188.19;;;19.56;48.06
50702;BME280;36670;50.094;8.496;2023-10-31T12:48:56;99196.97;;;18.95;48.26
50702;BME280;36670;50.094;8.496;2023-10-31T12:51:21;99192.47;;;19.32;47.72
50702;BME280;36670;50.094;8.496;2023-10-31T12:53:53;99192.41;;;19.41;48.01
50702;BME280;36670;50.094;8.496;2023-10-31T12:56:38;99194.63;;;18.97;48.44
50702;BME280;36670;50.094;8.496;2023-10-31T12:59:05;99193.19;;;19.20;48.65
50702;BME280;36670;50.094;8.496;2023-10-31T13:01:30;99192.44;;;19.62;47.94